Rouyn Noranda Airport
CYUY : now visible

Airfield :











YOU CAN JOIN US ON...

 
LOGIN :

Register | Disclaimer

   EN    FR    IT 

 









Legend :    VFR   Marginal VFR   IFR   Intensive IFR   Very Intensive IFR
Visi :
Ceiling :
>= 8 km
>= 3000ft
5 to 8 km
1000 to 3000 ft
1500m to 5 km
500 to 1000 ft
800 to 1500m
200 to 500 ft
< 800m
< 200 ft
Symbols :   Thunderstorms  Fog  Heavy snow  Heavy precipitations  Wind > 20 kt






- Airport Elevation : 988 ft
- IATA code : YUY


CYUY - Rouyn Noranda

CURRENT METAR :
  • 260000Z 19007KT 15SM FEW060 FEW078 SCT180 BKN240 26/16 A2993 RMK CU1AC1AS2CI4 CU TR DIST TCU TOPS NE SLP139 DENSITY ALT 2500FT

EXPIRED METARs :
  • 252300Z 22011KT 15SM FEW060 SCT100 BKN220 27/16 A2993 RMK CU1AC2CS4 SLP137 DENSITY ALT 2600FT
  • 252200Z 22011G16KT 15SM FEW060 FEW100 FEW180 BKN260 27/15 A2993 RMK CU1AC1AC2CS4 AC TR SLP137 DENSITY ALT 2700FT

TAF TAF CYUY
Valid from the 26 at 00:00 until the 26 at 12:00 UTC


252330Z 2600/2612 22010KT P6SM FEW060 SCT100 BKN220
BECMG 2600/2602 VRB03KT
FM260300 VRB03KT P6SM SCT060 OVC180
FM260900 VRB03KT P6SM BKN040 OVC100
BECMG 2609/2611 P6SM -SHRA RMK NXT FCST BY 260600Z
CZUL FIR / North America



MET'MAP, your aeronautical weather chart ! - Copyright ORBIFLY December 2007 - Disclaimer

ORBIFLY MET'MAP TEAM :

Programming & Development : Alexandra Zaïnal
Concept & original design : Baudouin d'Aumeries
Assistance for programming : Marc-Olivier Méhu
Technical & hardware support : Manuel Goepfert

Contact : metmap@orbifly.com




SOURCES & CREDITS :

   NOAA       Earth
Advisory